sensor_id;sensor_type;location;lat;lon;timestamp;temperature;humidity
65462;DHT22;53236;43.666;18.444;2023-02-28T00:00:33;-0.10;99.90
65462;DHT22;53236;43.666;18.444;2023-02-28T00:02:59;-0.10;99.90
65462;DHT22;53236;43.666;18.444;2023-02-28T00:05:27;-0.10;99.90
65462;DHT22;53236;43.666;18.444;2023-02-28T00:07:53;-0.20;99.90
65462;DHT22;53236;43.666;18.444;2023-02-28T00:10:24;-0.20;99.90
65462;DHT22;53236;43.666;18.444;2023-02-28T00:12:51;-0.20;99.90
65462;DHT22;53236;43.666;18.444;2023-02-28T00:15:17;-0.10;99.90
65462;DHT22;53236;43.666;18.444;2023-02-28T00:17:43;-0.10;99.90
65462;DHT22;53236;43.666;18.444;2023-02-28T00:20:10;-0.10;99.90
65462;DHT22;53236;43.666;18.444;2023-02-28T00:22:42;-0.20;99.90
65462;DHT22;53236;43.666;18.444;2023-02-28T00:25:13;-0.20;99.90
65462;DHT22;53236;43.666;18.444;2023-02-28T00:27:41;-0.20;99.90
65462;DHT22;53236;43.666;18.444;2023-02-28T00:30:09;-0.20;99.90
65462;DHT22;53236;43.666;18.444;2023-02-28T00:32:36;-0.30;99.90
65462;DHT22;53236;43.666;18.444;2023-02-28T00:35:04;-0.30;99.90
65462;DHT22;53236;43.666;18.444;2023-02-28T00:37:30;-0.30;99.90
65462;DHT22;53236;43.666;18.444;2023-02-28T00:39:56;-0.30;99.90
65462;DHT22;53236;43.666;18.444;2023-02-28T00:42:22;-0.30;99.90
65462;DHT22;53236;43.666;18.444;2023-02-28T00:44:48;-0.20;99.90
65462;DHT22;53236;43.666;18.444;2023-02-28T00:47:13;-0.20;99.90
65462;DHT22;53236;43.666;18.444;2023-02-28T00:49:40;-0.20;99.90
65462;DHT22;53236;43.666;18.444;2023-02-28T00:52:05;-0.20;99.90
65462;DHT22;53236;43.666;18.444;2023-02-28T00:54:31;-0.20;99.90
65462;DHT22;53236;43.666;18.444;2023-02-28T00:56:57;-0.10;99.90
65462;DHT22;53236;43.666;18.444;2023-02-28T00:59:22;-0.10;99.90
65462;DHT22;53236;43.666;18.444;2023-02-28T01:01:48;-0.10;99.90
65462;DHT22;53236;43.666;18.444;2023-02-28T01:04:14;-0.10;99.90
65462;DHT22;53236;43.666;18.444;2023-02-28T01:06:40;-0.10;99.90
65462;DHT22;53236;43.666;18.444;2023-02-28T01:09:07;-0.10;99.90
65462;DHT22;53236;43.666;18.444;2023-02-28T01:11:33;-0.10;99.90
65462;DHT22;53236;43.666;18.444;2023-02-28T01:14:00;-0.20;99.90
65462;DHT22;53236;43.666;18.444;2023-02-28T01:16:26;-0.10;99.90
65462;DHT22;53236;43.666;18.444;2023-02-28T01:18:52;-0.20;99.90
65462;DHT22;53236;43.666;18.444;2023-02-28T01:21:19;-0.20;99.90
65462;DHT22;53236;43.666;18.444;2023-02-28T01:23:46;-0.30;99.90
65462;DHT22;53236;43.666;18.444;2023-02-28T01:26:17;-0.20;99.90
65462;DHT22;53236;43.666;18.444;2023-02-28T01:28:43;-0.30;99.90
65462;DHT22;53236;43.666;18.444;2023-02-28T01:31:09;-0.30;99.90
65462;DHT22;53236;43.666;18.444;2023-02-28T01:33:35;-0.30;99.90
65462;DHT22;53236;43.666;18.444;2023-02-28T01:36:09;-0.30;99.90
65462;DHT22;53236;43.666;18.444;2023-02-28T01:38:36;-0.30;99.90
65462;DHT22;53236;43.666;18.444;2023-02-28T01:41:02;-0.30;99.90
65462;DHT22;53236;43.666;18.444;2023-02-28T01:43:30;-0.30;99.90
65462;DHT22;53236;43.666;18.444;2023-02-28T01:45:57;-0.30;99.90
65462;DHT22;53236;43.666;18.444;2023-02-28T01:48:31;-0.30;99.90
65462;DHT22;53236;43.666;18.444;2023-02-28T01:51:00;-0.30;99.90
65462;DHT22;53236;43.666;18.444;2023-02-28T01:53:42;-0.30;99.90
65462;DHT22;53236;43.666;18.444;2023-02-28T01:56:11;-0.30;99.90
65462;DHT22;53236;43.666;18.444;2023-02-28T01:58:37;-0.30;99.90
65462;DHT22;53236;43.666;18.444;2023-02-28T02:01:04;-0.30;99.90
65462;DHT22;53236;43.666;18.444;2023-02-28T02:03:30;-0.30;99.90
65462;DHT22;53236;43.666;18.444;2023-02-28T02:05:56;-0.30;99.90
65462;DHT22;53236;43.666;18.444;2023-02-28T02:08:26;-0.30;99.90
65462;DHT22;53236;43.666;18.444;2023-02-28T02:10:59;-0.30;99.90
65462;DHT22;53236;43.666;18.444;2023-02-28T02:16:23;-0.40;99.90
65462;DHT22;53236;43.666;18.444;2023-02-28T02:22:12;-0.40;99.90
65462;DHT22;53236;43.666;18.444;2023-02-28T02:36:27;-0.40;99.90
65462;DHT22;53236;43.666;18.444;2023-02-28T02:41:52;-0.40;99.90
65462;DHT22;53236;43.666;18.444;2023-02-28T02:44:31;-0.40;99.90
65462;DHT22;53236;43.666;18.444;2023-02-28T02:47:11;-0.40;99.90
65462;DHT22;53236;43.666;18.444;2023-02-28T02:49:43;-0.40;99.90
65462;DHT22;53236;43.666;18.444;2023-02-28T02:52:13;-0.40;99.90
65462;DHT22;53236;43.666;18.444;2023-02-28T02:54:44;-0.40;99.90
65462;DHT22;53236;43.666;18.444;2023-02-28T02:57:15;-0.40;99.90
65462;DHT22;53236;43.666;18.444;2023-02-28T02:59:43;-0.50;99.90
65462;DHT22;53236;43.666;18.444;2023-02-28T03:02:12;-0.50;99.90
65462;DHT22;53236;43.666;18.444;2023-02-28T03:04:46;-0.50;99.90
65462;DHT22;53236;43.666;18.444;2023-02-28T03:07:14;-0.50;99.90
65462;DHT22;53236;43.666;18.444;2023-02-28T03:09:40;-0.50;99.90
65462;DHT22;53236;43.666;18.444;2023-02-28T03:12:11;-0.50;99.90
65462;DHT22;53236;43.666;18.444;2023-02-28T03:15:15;-0.50;99.90
65462;DHT22;53236;43.666;18.444;2023-02-28T03:20:40;-0.50;99.90
65462;DHT22;53236;43.666;18.444;2023-02-28T03:23:23;-0.50;99.90
65462;DHT22;53236;43.666;18.444;2023-02-28T03:26:03;-0.50;99.90
65462;DHT22;53236;43.666;18.444;2023-02-28T03:31:13;-0.60;99.90
65462;DHT22;53236;43.666;18.444;2023-02-28T03:34:08;-0.60;99.90
65462;DHT22;53236;43.666;18.444;2023-02-28T03:36:42;-0.60;99.90
65462;DHT22;53236;43.666;18.444;2023-02-28T03:39:27;-0.60;99.90
65462;DHT22;53236;43.666;18.444;2023-02-28T03:42:02;-0.50;99.90
65462;DHT22;53236;43.666;18.444;2023-02-28T03:44:35;-0.50;99.90
65462;DHT22;53236;43.666;18.444;2023-02-28T03:47:09;-0.50;99.90
65462;DHT22;53236;43.666;18.444;2023-02-28T03:49:42;-0.50;99.90
65462;DHT22;53236;43.666;18.444;2023-02-28T03:52:11;-0.50;99.90
65462;DHT22;53236;43.666;18.444;2023-02-28T03:54:47;-0.50;99.90
65462;DHT22;53236;43.666;18.444;2023-02-28T03:57:23;-0.50;99.90
65462;DHT22;53236;43.666;18.444;2023-02-28T04:00:15;-0.50;99.90
65462;DHT22;53236;43.666;18.444;2023-02-28T04:02:43;-0.50;99.90
65462;DHT22;53236;43.666;18.444;2023-02-28T04:05:09;-0.50;99.90
65462;DHT22;53236;43.666;18.444;2023-02-28T04:07:34;-0.50;99.90
65462;DHT22;53236;43.666;18.444;2023-02-28T04:10:00;-0.60;99.90
65462;DHT22;53236;43.666;18.444;2023-02-28T04:12:26;-0.50;99.90
65462;DHT22;53236;43.666;18.444;2023-02-28T04:14:51;-0.60;99.90
65462;DHT22;53236;43.666;18.444;2023-02-28T04:17:17;-0.60;99.90
65462;DHT22;53236;43.666;18.444;2023-02-28T04:19:43;-0.60;99.90
65462;DHT22;53236;43.666;18.444;2023-02-28T04:22:10;-0.60;99.90
65462;DHT22;53236;43.666;18.444;2023-02-28T04:24:36;-0.60;99.90
65462;DHT22;53236;43.666;18.444;2023-02-28T04:27:02;-0.60;99.90
65462;DHT22;53236;43.666;18.444;2023-02-28T04:29:32;-0.60;99.90
65462;DHT22;53236;43.666;18.444;2023-02-28T04:31:58;-0.50;99.90
65462;DHT22;53236;43.666;18.444;2023-02-28T04:34:26;-0.60;99.90
65462;DHT22;53236;43.666;18.444;2023-02-28T04:36:52;-0.70;99.90
65462;DHT22;53236;43.666;18.444;2023-02-28T04:39:23;-0.70;99.90
65462;DHT22;53236;43.666;18.444;2023-02-28T04:41:50;-0.60;99.90
65462;DHT22;53236;43.666;18.444;2023-02-28T04:44:16;-0.70;99.90
65462;DHT22;53236;43.666;18.444;2023-02-28T04:46:42;-0.60;99.90
65462;DHT22;53236;43.666;18.444;2023-02-28T04:49:12;-0.60;99.90
65462;DHT22;53236;43.666;18.444;2023-02-28T04:51:38;-0.60;99.90
65462;DHT22;53236;43.666;18.444;2023-02-28T04:54:03;-0.50;99.90
65462;DHT22;53236;43.666;18.444;2023-02-28T04:56:29;-0.60;99.90
65462;DHT22;53236;43.666;18.444;2023-02-28T04:58:55;-0.60;99.90
65462;DHT22;53236;43.666;18.444;2023-02-28T05:01:24;-0.60;99.90
65462;DHT22;53236;43.666;18.444;2023-02-28T05:03:52;-0.60;99.90
65462;DHT22;53236;43.666;18.444;2023-02-28T05:06:18;-0.60;99.90
65462;DHT22;53236;43.666;18.444;2023-02-28T05:08:44;-0.60;99.90
65462;DHT22;53236;43.666;18.444;2023-02-28T05:11:24;-0.50;99.90
65462;DHT22;53236;43.666;18.444;2023-02-28T05:13:51;-0.60;99.90
65462;DHT22;53236;43.666;18.444;2023-02-28T05:16:18;-0.60;99.90
65462;DHT22;53236;43.666;18.444;2023-02-28T05:18:44;-0.60;99.90
65462;DHT22;53236;43.666;18.444;2023-02-28T05:21:48;-0.60;99.90
65462;DHT22;53236;43.666;18.444;2023-02-28T05:24:14;-0.60;99.90
65462;DHT22;53236;43.666;18.444;2023-02-28T05:26:42;-0.60;99.90
65462;DHT22;53236;43.666;18.444;2023-02-28T05:29:08;-0.50;99.90
65462;DHT22;53236;43.666;18.444;2023-02-28T05:31:34;-0.50;99.90
65462;DHT22;53236;43.666;18.444;2023-02-28T05:34:00;-0.50;99.90
65462;DHT22;53236;43.666;18.444;2023-02-28T05:36:26;-0.50;99.90
65462;DHT22;53236;43.666;18.444;2023-02-28T05:38:52;-0.50;99.90
65462;DHT22;53236;43.666;18.444;2023-02-28T05:41:19;-0.50;99.90
65462;DHT22;53236;43.666;18.444;2023-02-28T05:43:46;-0.50;99.90
65462;DHT22;53236;43.666;18.444;2023-02-28T05:46:12;-0.50;99.90
65462;DHT22;53236;43.666;18.444;2023-02-28T05:48:39;-0.50;99.90
65462;DHT22;53236;43.666;18.444;2023-02-28T05:51:06;-0.50;99.90
65462;DHT22;53236;43.666;18.444;2023-02-28T05:53:32;-0.40;99.90
65462;DHT22;53236;43.666;18.444;2023-02-28T05:55:59;-0.40;99.90
65462;DHT22;53236;43.666;18.444;2023-02-28T05:58:24;-0.40;99.90
65462;DHT22;53236;43.666;18.444;2023-02-28T06:01:00;-0.30;99.90
65462;DHT22;53236;43.666;18.444;2023-02-28T06:03:26;-0.30;99.90
65462;DHT22;53236;43.666;18.444;2023-02-28T06:05:52;-0.20;99.90
65462;DHT22;53236;43.666;18.444;2023-02-28T06:08:18;-0.20;99.90
65462;DHT22;53236;43.666;18.444;2023-02-28T06:10:44;-0.10;99.90
65462;DHT22;53236;43.666;18.444;2023-02-28T06:13:10;-0.10;99.90
65462;DHT22;53236;43.666;18.444;2023-02-28T06:15:38;0.10;99.90
65462;DHT22;53236;43.666;18.444;2023-02-28T06:18:04;0.30;99.90
65462;DHT22;53236;43.666;18.444;2023-02-28T06:20:29;0.50;99.90
65462;DHT22;53236;43.666;18.444;2023-02-28T06:22:56;0.90;99.90
65462;DHT22;53236;43.666;18.444;2023-02-28T06:25:25;1.20;99.90
65462;DHT22;53236;43.666;18.444;2023-02-28T06:27:51;1.40;99.90
65462;DHT22;53236;43.666;18.444;2023-02-28T06:30:16;1.50;99.90
65462;DHT22;53236;43.666;18.444;2023-02-28T06:32:42;1.60;99.90
65462;DHT22;53236;43.666;18.444;2023-02-28T06:35:08;1.40;99.90
65462;DHT22;53236;43.666;18.444;2023-02-28T06:37:34;1.20;99.90
65462;DHT22;53236;43.666;18.444;2023-02-28T06:40:00;1.30;99.90
65462;DHT22;53236;43.666;18.444;2023-02-28T06:42:25;1.00;99.90
65462;DHT22;53236;43.666;18.444;2023-02-28T06:44:54;1.00;99.90
65462;DHT22;53236;43.666;18.444;2023-02-28T06:47:21;1.10;99.90
65462;DHT22;53236;43.666;18.444;2023-02-28T06:49:46;1.10;99.90
65462;DHT22;53236;43.666;18.444;2023-02-28T06:52:12;1.20;99.90
65462;DHT22;53236;43.666;18.444;2023-02-28T06:54:38;1.30;99.90
65462;DHT22;53236;43.666;18.444;2023-02-28T06:57:04;1.40;99.90
65462;DHT22;53236;43.666;18.444;2023-02-28T06:59:30;1.40;99.90
65462;DHT22;53236;43.666;18.444;2023-02-28T07:01:56;1.40;99.90
65462;DHT22;53236;43.666;18.444;2023-02-28T07:04:22;1.60;99.90
65462;DHT22;53236;43.666;18.444;2023-02-28T07:06:47;1.70;99.90
65462;DHT22;53236;43.666;18.444;2023-02-28T07:09:13;2.00;99.90
65462;DHT22;53236;43.666;18.444;2023-02-28T07:11:40;2.20;99.90
65462;DHT22;53236;43.666;18.444;2023-02-28T07:14:12;2.50;99.90
65462;DHT22;53236;43.666;18.444;2023-02-28T07:16:37;2.70;99.90
65462;DHT22;53236;43.666;18.444;2023-02-28T07:19:03;2.50;99.90
65462;DHT22;53236;43.666;18.444;2023-02-28T07:21:29;2.80;99.90
65462;DHT22;53236;43.666;18.444;2023-02-28T07:23:56;3.20;99.90
65462;DHT22;53236;43.666;18.444;2023-02-28T07:26:22;3.40;99.90
65462;DHT22;53236;43.666;18.444;2023-02-28T07:28:48;3.70;99.90
65462;DHT22;53236;43.666;18.444;2023-02-28T07:31:14;3.90;99.90
65462;DHT22;53236;43.666;18.444;2023-02-28T07:33:41;4.10;99.90
65462;DHT22;53236;43.666;18.444;2023-02-28T07:36:11;4.40;99.90
65462;DHT22;53236;43.666;18.444;2023-02-28T07:38:44;4.40;99.90
65462;DHT22;53236;43.666;18.444;2023-02-28T07:41:10;4.70;99.90
65462;DHT22;53236;43.666;18.444;2023-02-28T07:43:36;4.80;99.90
65462;DHT22;53236;43.666;18.444;2023-02-28T07:48:29;4.90;99.90
65462;DHT22;53236;43.666;18.444;2023-02-28T07:50:58;4.40;99.90
65462;DHT22;53236;43.666;18.444;2023-02-28T07:53:25;4.40;99.90
65462;DHT22;53236;43.666;18.444;2023-02-28T07:55:50;4.60;99.90
65462;DHT22;53236;43.666;18.444;2023-02-28T07:58:16;4.70;99.90
65462;DHT22;53236;43.666;18.444;2023-02-28T08:00:42;4.60;99.90
65462;DHT22;53236;43.666;18.444;2023-02-28T08:03:11;4.90;99.90
65462;DHT22;53236;43.666;18.444;2023-02-28T08:05:40;5.00;99.90
65462;DHT22;53236;43.666;18.444;2023-02-28T08:08:07;5.20;99.90
65462;DHT22;53236;43.666;18.444;2023-02-28T08:10:33;5.00;99.90
65462;DHT22;53236;43.666;18.444;2023-02-28T08:12:59;5.00;99.90
65462;DHT22;53236;43.666;18.444;2023-02-28T08:15:25;5.10;99.90
65462;DHT22;53236;43.666;18.444;2023-02-28T08:17:51;5.20;99.90
65462;DHT22;53236;43.666;18.444;2023-02-28T08:20:16;5.30;99.90
65462;DHT22;53236;43.666;18.444;2023-02-28T08:22:42;5.20;99.90
65462;DHT22;53236;43.666;18.444;2023-02-28T08:25:08;5.30;99.90
65462;DHT22;53236;43.666;18.444;2023-02-28T08:27:34;5.30;99.90
65462;DHT22;53236;43.666;18.444;2023-02-28T08:30:00;5.30;99.90
65462;DHT22;53236;43.666;18.444;2023-02-28T08:32:26;5.30;99.90
65462;DHT22;53236;43.666;18.444;2023-02-28T08:34:51;5.30;99.90
65462;DHT22;53236;43.666;18.444;2023-02-28T08:37:17;5.20;99.90
65462;DHT22;53236;43.666;18.444;2023-02-28T08:39:43;5.10;99.90
65462;DHT22;53236;43.666;18.444;2023-02-28T08:42:08;5.00;99.90
65462;DHT22;53236;43.666;18.444;2023-02-28T08:44:34;4.80;99.90
65462;DHT22;53236;43.666;18.444;2023-02-28T08:47:00;4.70;99.90
65462;DHT22;53236;43.666;18.444;2023-02-28T08:49:26;4.60;99.90
65462;DHT22;53236;43.666;18.444;2023-02-28T08:51:52;4.40;99.90
65462;DHT22;53236;43.666;18.444;2023-02-28T08:54:17;4.40;99.90
65462;DHT22;53236;43.666;18.444;2023-02-28T08:56:45;4.40;99.90
65462;DHT22;53236;43.666;18.444;2023-02-28T08:59:12;4.60;99.90
65462;DHT22;53236;43.666;18.444;2023-02-28T09:01:38;4.50;99.90
65462;DHT22;53236;43.666;18.444;2023-02-28T09:04:04;4.70;99.90
65462;DHT22;53236;43.666;18.444;2023-02-28T09:06:32;4.80;99.90
65462;DHT22;53236;43.666;18.444;2023-02-28T09:08:58;4.90;99.90
65462;DHT22;53236;43.666;18.444;2023-02-28T09:11:24;4.90;99.90
65462;DHT22;53236;43.666;18.444;2023-02-28T09:13:50;5.30;99.90
65462;DHT22;53236;43.666;18.444;2023-02-28T09:16:16;5.30;99.90
65462;DHT22;53236;43.666;18.444;2023-02-28T09:18:43;5.20;99.90
65462;DHT22;53236;43.666;18.444;2023-02-28T09:21:14;5.20;99.90
65462;DHT22;53236;43.666;18.444;2023-02-28T09:23:41;5.20;99.90
65462;DHT22;53236;43.666;18.444;2023-02-28T09:26:07;5.50;99.90
65462;DHT22;53236;43.666;18.444;2023-02-28T09:28:33;5.70;99.90
65462;DHT22;53236;43.666;18.444;2023-02-28T09:30:59;6.10;99.90
65462;DHT22;53236;43.666;18.444;2023-02-28T09:33:25;6.40;99.90
65462;DHT22;53236;43.666;18.444;2023-02-28T09:35:58;6.60;97.20
65462;DHT22;53236;43.666;18.444;2023-02-28T09:38:24;6.70;96.80
65462;DHT22;53236;43.666;18.444;2023-02-28T09:40:53;6.80;98.80
65462;DHT22;53236;43.666;18.444;2023-02-28T09:43:22;7.00;98.00
65462;DHT22;53236;43.666;18.444;2023-02-28T09:46:11;7.00;97.70
65462;DHT22;53236;43.666;18.444;2023-02-28T09:48:42;7.10;96.60
65462;DHT22;53236;43.666;18.444;2023-02-28T09:51:33;6.80;97.30
65462;DHT22;53236;43.666;18.444;2023-02-28T09:53:59;6.80;95.50
65462;DHT22;53236;43.666;18.444;2023-02-28T09:56:33;6.70;96.50
65462;DHT22;53236;43.666;18.444;2023-02-28T09:59:02;6.40;98.10
65462;DHT22;53236;43.666;18.444;2023-02-28T10:06:51;6.60;98.30
65462;DHT22;53236;43.666;18.444;2023-02-28T10:09:23;6.60;99.90
65462;DHT22;53236;43.666;18.444;2023-02-28T10:11:52;6.80;99.90
65462;DHT22;53236;43.666;18.444;2023-02-28T10:14:22;6.80;99.60
65462;DHT22;53236;43.666;18.444;2023-02-28T10:19:35;6.70;98.60
65462;DHT22;53236;43.666;18.444;2023-02-28T10:22:24;6.90;97.30
65462;DHT22;53236;43.666;18.444;2023-02-28T10:24:53;6.60;99.30
65462;DHT22;53236;43.666;18.444;2023-02-28T10:27:21;6.60;99.90
65462;DHT22;53236;43.666;18.444;2023-02-28T10:29:49;6.50;99.90
65462;DHT22;53236;43.666;18.444;2023-02-28T10:32:18;6.30;99.90
65462;DHT22;53236;43.666;18.444;2023-02-28T10:34:44;5.80;99.90
65462;DHT22;53236;43.666;18.444;2023-02-28T10:37:13;5.40;99.90
65462;DHT22;53236;43.666;18.444;2023-02-28T10:39:46;5.10;99.90
65462;DHT22;53236;43.666;18.444;2023-02-28T10:42:21;5.20;99.90
65462;DHT22;53236;43.666;18.444;2023-02-28T10:45:11;4.80;99.90
65462;DHT22;53236;43.666;18.444;2023-02-28T10:47:55;4.50;99.90
65462;DHT22;53236;43.666;18.444;2023-02-28T10:50:32;4.30;99.90
65462;DHT22;53236;43.666;18.444;2023-02-28T10:58:58;4.50;99.90
65462;DHT22;53236;43.666;18.444;2023-02-28T11:04:34;4.70;99.90
65462;DHT22;53236;43.666;18.444;2023-02-28T11:07:06;4.50;99.90
65462;DHT22;53236;43.666;18.444;2023-02-28T11:09:35;4.50;99.90
65462;DHT22;53236;43.666;18.444;2023-02-28T11:12:19;4.50;99.90
65462;DHT22;53236;43.666;18.444;2023-02-28T11:14:50;4.60;99.90
65462;DHT22;53236;43.666;18.444;2023-02-28T11:17:29;4.70;99.90
65462;DHT22;53236;43.666;18.444;2023-02-28T11:20:06;4.60;99.90
65462;DHT22;53236;43.666;18.444;2023-02-28T11:22:37;4.50;99.90
65462;DHT22;53236;43.666;18.444;2023-02-28T11:25:21;4.50;99.90
65462;DHT22;53236;43.666;18.444;2023-02-28T11:28:30;4.20;99.90
65462;DHT22;53236;43.666;18.444;2023-02-28T11:36:24;3.40;99.90
65462;DHT22;53236;43.666;18.444;2023-02-28T11:38:51;3.20;99.90
65462;DHT22;53236;43.666;18.444;2023-02-28T11:46:47;3.40;99.90
65462;DHT22;53236;43.666;18.444;2023-02-28T11:52:04;3.40;99.90
65462;DHT22;53236;43.666;18.444;2023-02-28T11:57:55;3.40;99.90
65462;DHT22;53236;43.666;18.444;2023-02-28T12:11:56;3.60;99.90
65462;DHT22;53236;43.666;18.444;2023-02-28T12:22:37;3.50;99.90
65462;DHT22;53236;43.666;18.444;2023-02-28T12:27:46;3.40;99.90
65462;DHT22;53236;43.666;18.444;2023-02-28T12:30:21;3.50;99.90
65462;DHT22;53236;43.666;18.444;2023-02-28T12:33:17;3.50;99.90
65462;DHT22;53236;43.666;18.444;2023-02-28T12:36:03;3.60;99.90
65462;DHT22;53236;43.666;18.444;2023-02-28T12:38:36;3.60;99.90
65462;DHT22;53236;43.666;18.444;2023-02-28T12:41:24;3.50;99.90
65462;DHT22;53236;43.666;18.444;2023-02-28T12:44:01;3.50;99.90
65462;DHT22;53236;43.666;18.444;2023-02-28T12:46:41;3.50;99.90
65462;DHT22;53236;43.666;18.444;2023-02-28T12:49:19;3.80;99.90
65462;DHT22;53236;43.666;18.444;2023-02-28T12:51:47;4.10;99.90
65462;DHT22;53236;43.666;18.444;2023-02-28T12:58:01;4.40;99.90
65462;DHT22;53236;43.666;18.444;2023-02-28T13:00:44;4.30;99.90
65462;DHT22;53236;43.666;18.444;2023-02-28T13:03:21;4.70;99.90
65462;DHT22;53236;43.666;18.444;2023-02-28T13:09:04;4.70;99.90
65462;DHT22;53236;43.666;18.444;2023-02-28T13:11:31;4.60;99.90
65462;DHT22;53236;43.666;18.444;2023-02-28T13:14:06;4.60;99.90
65462;DHT22;53236;43.666;18.444;2023-02-28T13:19:31;4.60;99.90
65462;DHT22;53236;43.666;18.444;2023-02-28T13:21:58;4.50;99.90
65462;DHT22;53236;43.666;18.444;2023-02-28T13:24:55;4.40;99.90
65462;DHT22;53236;43.666;18.444;2023-02-28T13:27:25;4.30;99.90
65462;DHT22;53236;43.666;18.444;2023-02-28T13:29:57;4.10;99.90
65462;DHT22;53236;43.666;18.444;2023-02-28T13:39:53;3.80;99.90
65462;DHT22;53236;43.666;18.444;2023-02-28T13:55:37;3.80;99.90
65462;DHT22;53236;43.666;18.444;2023-02-28T14:06:53;3.00;99.90
65462;DHT22;53236;43.666;18.444;2023-02-28T14:09:34;2.90;99.90
65462;DHT22;53236;43.666;18.444;2023-02-28T14:17:54;2.60;99.90
65462;DHT22;53236;43.666;18.444;2023-02-28T14:20:21;2.50;99.90
65462;DHT22;53236;43.666;18.444;2023-02-28T14:25:44;2.40;99.90
65462;DHT22;53236;43.666;18.444;2023-02-28T14:31:15;2.40;99.90
65462;DHT22;53236;43.666;18.444;2023-02-28T14:36:25;2.50;99.90
65462;DHT22;53236;43.666;18.444;2023-02-28T14:39:00;2.50;99.90
65462;DHT22;53236;43.666;18.444;2023-02-28T14:41:40;2.40;99.90
65462;DHT22;53236;43.666;18.444;2023-02-28T14:46:53;2.50;99.90
65462;DHT22;53236;43.666;18.444;2023-02-28T14:49:29;2.40;99.90
65462;DHT22;53236;43.666;18.444;2023-02-28T14:52:17;2.20;99.90
65462;DHT22;53236;43.666;18.444;2023-02-28T14:54:44;2.10;99.90
65462;DHT22;53236;43.666;18.444;2023-02-28T15:02:30;2.10;99.90
65462;DHT22;53236;43.666;18.444;2023-02-28T15:07:39;2.20;99.90
65462;DHT22;53236;43.666;18.444;2023-02-28T15:10:19;2.20;99.90
65462;DHT22;53236;43.666;18.444;2023-02-28T15:12:56;2.30;99.90
65462;DHT22;53236;43.666;18.444;2023-02-28T15:15:51;2.20;99.90
65462;DHT22;53236;43.666;18.444;2023-02-28T15:20:52;2.10;99.90
65462;DHT22;53236;43.666;18.444;2023-02-28T15:23:21;2.20;99.90
65462;DHT22;53236;43.666;18.444;2023-02-28T15:25:47;2.00;99.90
65462;DHT22;53236;43.666;18.444;2023-02-28T15:28:19;1.90;99.90
65462;DHT22;53236;43.666;18.444;2023-02-28T15:30:57;1.90;99.90
65462;DHT22;53236;43.666;18.444;2023-02-28T15:33:31;1.70;99.90
65462;DHT22;53236;43.666;18.444;2023-02-28T15:36:17;1.60;99.90
65462;DHT22;53236;43.666;18.444;2023-02-28T15:38:51;1.50;99.90
65462;DHT22;53236;43.666;18.444;2023-02-28T15:44:16;1.40;99.90
65462;DHT22;53236;43.666;18.444;2023-02-28T15:46:53;1.30;99.90
65462;DHT22;53236;43.666;18.444;2023-02-28T15:49:21;1.40;99.90
65462;DHT22;53236;43.666;18.444;2023-02-28T15:51:50;1.30;99.90
65462;DHT22;53236;43.666;18.444;2023-02-28T15:54:27;1.30;99.90
65462;DHT22;53236;43.666;18.444;2023-02-28T15:56:56;1.30;99.90
65462;DHT22;53236;43.666;18.444;2023-02-28T15:59:28;1.20;99.90
65462;DHT22;53236;43.666;18.444;2023-02-28T16:02:16;1.20;99.90
65462;DHT22;53236;43.666;18.444;2023-02-28T16:05:39;1.20;99.90
65462;DHT22;53236;43.666;18.444;2023-02-28T16:08:15;1.20;99.90
65462;DHT22;53236;43.666;18.444;2023-02-28T16:10:41;1.10;99.90
65462;DHT22;53236;43.666;18.444;2023-02-28T16:13:11;1.10;99.90
65462;DHT22;53236;43.666;18.444;2023-02-28T16:15:42;1.10;99.90
65462;DHT22;53236;43.666;18.444;2023-02-28T16:18:11;1.10;99.90
65462;DHT22;53236;43.666;18.444;2023-02-28T16:20:37;1.10;99.90
65462;DHT22;53236;43.666;18.444;2023-02-28T16:23:04;1.10;99.90
65462;DHT22;53236;43.666;18.444;2023-02-28T16:25:35;1.20;99.90
65462;DHT22;53236;43.666;18.444;2023-02-28T16:28:02;1.10;99.90
65462;DHT22;53236;43.666;18.444;2023-02-28T16:30:29;1.10;99.90
65462;DHT22;53236;43.666;18.444;2023-02-28T16:32:58;1.10;99.90
65462;DHT22;53236;43.666;18.444;2023-02-28T16:35:24;1.10;99.90
65462;DHT22;53236;43.666;18.444;2023-02-28T16:37:53;1.00;99.90
65462;DHT22;53236;43.666;18.444;2023-02-28T16:40:25;1.00;99.90
65462;DHT22;53236;43.666;18.444;2023-02-28T16:42:55;0.90;99.90
65462;DHT22;53236;43.666;18.444;2023-02-28T16:45:28;0.90;99.90
65462;DHT22;53236;43.666;18.444;2023-02-28T16:47:54;1.00;99.90
65462;DHT22;53236;43.666;18.444;2023-02-28T16:50:23;1.00;99.90
65462;DHT22;53236;43.666;18.444;2023-02-28T16:52:50;1.00;99.90
65462;DHT22;53236;43.666;18.444;2023-02-28T16:55:18;1.00;99.90
65462;DHT22;53236;43.666;18.444;2023-02-28T16:57:50;1.00;99.90
65462;DHT22;53236;43.666;18.444;2023-02-28T17:00:17;1.00;99.90
65462;DHT22;53236;43.666;18.444;2023-02-28T17:02:43;1.00;99.90
65462;DHT22;53236;43.666;18.444;2023-02-28T17:05:11;0.90;99.90
65462;DHT22;53236;43.666;18.444;2023-02-28T17:07:38;1.00;99.90
65462;DHT22;53236;43.666;18.444;2023-02-28T17:10:17;0.90;99.90
65462;DHT22;53236;43.666;18.444;2023-02-28T17:12:43;0.90;99.90
65462;DHT22;53236;43.666;18.444;2023-02-28T17:15:10;0.90;99.90
65462;DHT22;53236;43.666;18.444;2023-02-28T17:17:36;0.80;99.90
65462;DHT22;53236;43.666;18.444;2023-02-28T17:20:03;0.80;99.90
65462;DHT22;53236;43.666;18.444;2023-02-28T17:22:29;0.80;99.90
65462;DHT22;53236;43.666;18.444;2023-02-28T17:24:55;0.80;99.90
65462;DHT22;53236;43.666;18.444;2023-02-28T17:27:24;0.80;99.90
65462;DHT22;53236;43.666;18.444;2023-02-28T17:29:50;0.80;99.90
65462;DHT22;53236;43.666;18.444;2023-02-28T17:32:16;0.80;99.90
65462;DHT22;53236;43.666;18.444;2023-02-28T17:34:42;0.80;99.90
65462;DHT22;53236;43.666;18.444;2023-02-28T17:37:09;0.80;99.90
65462;DHT22;53236;43.666;18.444;2023-02-28T17:39:35;0.80;99.90
65462;DHT22;53236;43.666;18.444;2023-02-28T17:42:00;0.80;99.90
65462;DHT22;53236;43.666;18.444;2023-02-28T17:44:26;0.70;99.90
65462;DHT22;53236;43.666;18.444;2023-02-28T17:46:53;0.80;99.90
65462;DHT22;53236;43.666;18.444;2023-02-28T17:49:20;0.80;99.90
65462;DHT22;53236;43.666;18.444;2023-02-28T17:51:46;0.80;99.90
65462;DHT22;53236;43.666;18.444;2023-02-28T17:54:12;0.80;99.90
65462;DHT22;53236;43.666;18.444;2023-02-28T17:56:40;0.80;99.90
65462;DHT22;53236;43.666;18.444;2023-02-28T17:59:05;0.80;99.90
65462;DHT22;53236;43.666;18.444;2023-02-28T18:01:31;0.80;99.90
65462;DHT22;53236;43.666;18.444;2023-02-28T18:03:57;0.80;99.90
65462;DHT22;53236;43.666;18.444;2023-02-28T18:06:31;0.80;99.90
65462;DHT22;53236;43.666;18.444;2023-02-28T18:08:58;0.80;99.90
65462;DHT22;53236;43.666;18.444;2023-02-28T18:11:24;0.80;99.90
65462;DHT22;53236;43.666;18.444;2023-02-28T18:13:52;0.80;99.90
65462;DHT22;53236;43.666;18.444;2023-02-28T18:16:20;0.80;99.90